createdAt,value
2023-03-08T00:02:56.701Z,7.60
2023-03-08T00:07:01.069Z,7.15
2023-03-08T00:11:06.813Z,7.18
2023-03-08T00:15:10.282Z,6.60
2023-03-08T00:19:13.357Z,7.03
2023-03-08T00:23:17.717Z,7.22
2023-03-08T00:27:20.772Z,6.53
2023-03-08T00:31:23.854Z,5.82
2023-03-08T00:35:29.863Z,6.97
2023-03-08T00:39:34.816Z,6.72
2023-03-08T00:43:38.170Z,6.38
2023-03-08T00:47:41.300Z,5.45
2023-03-08T00:51:44.413Z,5.50
2023-03-08T00:55:53.686Z,4.97
2023-03-08T00:59:57.016Z,5.13
2023-03-08T01:04:01.311Z,4.53
2023-03-08T01:08:05.627Z,4.47
2023-03-08T01:12:10.209Z,4.35
2023-03-08T01:16:18.024Z,4.22
2023-03-08T01:20:21.131Z,3.90
2023-03-08T01:24:24.192Z,3.80
2023-03-08T01:28:29.002Z,4.03
2023-03-08T01:32:32.220Z,4.03
2023-03-08T01:36:35.324Z,4.03
2023-03-08T01:40:38.953Z,3.97
2023-03-08T01:44:55.377Z,3.72
2023-03-08T01:49:05.294Z,4.15
2023-03-08T01:53:08.794Z,4.05
2023-03-08T01:57:18.923Z,3.58
2023-03-08T02:01:23.858Z,3.92
2023-03-08T02:05:29.374Z,3.40
2023-03-08T02:09:39.580Z,3.47
2023-03-08T02:13:43.978Z,3.63
2023-03-08T02:17:49.542Z,3.83
2023-03-08T02:21:52.835Z,3.85
2023-03-08T02:26:00.432Z,3.42
2023-03-08T02:30:03.995Z,4.03
2023-03-08T02:34:08.196Z,4.05
2023-03-08T02:38:12.375Z,3.80
2023-03-08T02:42:16.980Z,3.90
2023-03-08T02:46:20.071Z,3.55
2023-03-08T02:50:23.146Z,4.30
2023-03-08T02:54:26.243Z,4.03
2023-03-08T02:58:30.640Z,4.28
2023-03-08T03:02:34.021Z,4.38
2023-03-08T03:06:37.345Z,4.78
2023-03-08T03:10:41.877Z,4.10
2023-03-08T03:14:46.386Z,3.92
2023-03-08T03:18:49.942Z,4.20
2023-03-08T03:22:53.149Z,4.35
2023-03-08T03:27:01.638Z,4.47
2023-03-08T03:31:13.261Z,4.45
2023-03-08T03:35:16.830Z,4.63
2023-03-08T03:39:20.356Z,4.57
2023-03-08T03:43:25.293Z,5.00
2023-03-08T03:47:29.987Z,4.70
2023-03-08T03:51:36.499Z,4.63
2023-03-08T03:55:49.661Z,5.03
2023-03-08T03:59:52.961Z,4.78
2023-03-08T04:04:00.272Z,4.35
2023-03-08T04:08:05.704Z,4.63
2023-03-08T04:12:11.118Z,4.85
2023-03-08T04:16:17.991Z,4.50
2023-03-08T04:20:22.705Z,4.20
2023-03-08T04:24:31.870Z,4.43
2023-03-08T04:28:39.178Z,4.20
2023-03-08T04:32:42.719Z,4.50
2023-03-08T04:36:47.637Z,4.43
2023-03-08T04:41:06.530Z,4.35
2023-03-08T04:45:19.065Z,4.93
2023-03-08T04:49:22.282Z,4.43
2023-03-08T04:53:32.686Z,4.53
2023-03-08T04:57:36.672Z,4.20
2023-03-08T05:01:40.557Z,4.57
2023-03-08T05:05:48.166Z,4.43
2023-03-08T05:09:53.635Z,4.32
2023-03-08T05:13:58.157Z,4.18
2023-03-08T05:18:02.305Z,4.82
2023-03-08T05:22:06.846Z,4.78
2023-03-08T05:26:18.307Z,4.65
2023-03-08T05:30:22.177Z,5.30
2023-03-08T05:34:30.572Z,4.70
2023-03-08T05:38:35.615Z,5.05
2023-03-08T05:42:43.794Z,5.38
2023-03-08T05:46:50.811Z,5.40
2023-03-08T05:50:58.483Z,5.00
2023-03-08T05:55:03.695Z,5.15
2023-03-08T05:59:08.478Z,5.47
2023-03-08T06:03:11.722Z,4.57
2023-03-08T06:07:19.014Z,5.55
2023-03-08T06:11:27.772Z,5.32
2023-03-08T06:15:35.431Z,5.00
2023-03-08T06:19:39.293Z,5.32
2023-03-08T06:23:43.273Z,5.35
2023-03-08T06:27:46.474Z,4.85
2023-03-08T06:32:01.656Z,4.70
2023-03-08T06:36:08.125Z,5.28
2023-03-08T06:40:13.983Z,5.07
2023-03-08T06:44:18.252Z,4.93
2023-03-08T06:48:22.954Z,5.35
2023-03-08T06:52:27.675Z,4.25
2023-03-08T06:56:31.247Z,4.55
2023-03-08T07:00:34.984Z,5.95
2023-03-08T07:04:39.504Z,4.40
2023-03-08T07:08:43.277Z,4.88
2023-03-08T07:12:48.565Z,4.45
2023-03-08T07:16:51.726Z,4.18
2023-03-08T07:20:57.253Z,4.38
2023-03-08T07:25:00.706Z,4.60
2023-03-08T07:29:03.973Z,3.83
2023-03-08T07:33:07.050Z,4.32
2023-03-08T07:37:14.084Z,3.78
2023-03-08T07:41:18.016Z,4.20
2023-03-08T07:45:20.978Z,3.88
2023-03-08T07:49:24.805Z,4.07
2023-03-08T07:53:29.174Z,4.18
2023-03-08T07:57:32.236Z,3.78
2023-03-08T08:01:35.472Z,4.00
2023-03-08T08:05:38.617Z,4.07
2023-03-08T08:09:43.395Z,3.28
2023-03-08T08:13:47.181Z,3.33
2023-03-08T08:17:50.158Z,3.25
2023-03-08T08:21:53.290Z,3.30
2023-03-08T08:25:57.977Z,3.05
2023-03-08T08:30:01.947Z,2.85
2023-03-08T08:34:04.976Z,2.47
2023-03-08T08:38:08.790Z,2.15
2023-03-08T08:42:13.144Z,2.90
2023-03-08T08:46:17.354Z,2.35
2023-03-08T08:50:20.376Z,2.47
2023-03-08T08:54:23.845Z,2.67
2023-03-08T08:58:28.349Z,2.35
2023-03-08T09:02:31.487Z,2.42
2023-03-08T09:06:34.596Z,2.05
2023-03-08T09:10:39.718Z,2.25
2023-03-08T09:14:44.150Z,2.03
2023-03-08T09:18:47.646Z,2.28
2023-03-08T09:22:52.102Z,2.15
2023-03-08T09:26:55.415Z,1.98
2023-03-08T09:30:59.884Z,2.00
2023-03-08T09:35:05.258Z,2.17
2023-03-08T09:39:09.022Z,2.50
2023-03-08T09:43:22.363Z,2.40
2023-03-08T09:47:47.874Z,2.60
2023-03-08T09:51:58.398Z,2.55
2023-03-08T09:56:05.287Z,2.50
2023-03-08T10:00:18.349Z,2.88
2023-03-08T10:04:40.713Z,2.95
2023-03-08T10:08:50.399Z,2.58
2023-03-08T10:13:15.175Z,3.17
2023-03-08T10:17:21.918Z,2.85
2023-03-08T10:21:27.942Z,2.85
2023-03-08T10:25:34.145Z,2.85
2023-03-08T10:29:37.171Z,2.83
2023-03-08T10:33:40.284Z,2.70
2023-03-08T10:37:50.972Z,2.88
2023-03-08T10:41:57.959Z,3.13
2023-03-08T10:46:04.576Z,3.08
2023-03-08T10:50:14.851Z,3.10
2023-03-08T10:54:19.203Z,4.00
2023-03-08T10:58:30.315Z,4.00
2023-03-08T11:02:33.347Z,3.60
2023-03-08T11:06:37.069Z,3.78
2023-03-08T11:10:41.604Z,5.10
2023-03-08T11:14:44.891Z,5.13
2023-03-08T11:18:59.037Z,6.32
2023-03-08T11:23:17.024Z,5.13
2023-03-08T11:27:33.346Z,4.95
2023-03-08T11:31:43.757Z,5.50
2023-03-08T11:35:53.193Z,5.30
2023-03-08T11:40:05.696Z,5.45
2023-03-08T11:44:27.168Z,5.97
2023-03-08T11:48:56.689Z,5.15
2023-03-08T11:53:13.733Z,6.25
2023-03-08T11:57:18.878Z,6.32
2023-03-08T12:01:26.829Z,5.78
2023-03-08T12:05:31.889Z,6.07
2023-03-08T12:09:40.298Z,6.63
2023-03-08T12:13:46.597Z,6.70
2023-03-08T12:17:55.344Z,6.80
2023-03-08T12:22:08.602Z,5.90
2023-03-08T12:26:18.674Z,6.38
2023-03-08T12:30:34.531Z,6.18
2023-03-08T12:34:41.397Z,5.97
2023-03-08T12:38:48.958Z,5.38
2023-03-08T12:42:52.179Z,6.00
2023-03-08T12:47:03.497Z,6.13
2023-03-08T12:51:21.564Z,5.78
2023-03-08T12:55:31.656Z,5.50
2023-03-08T12:59:37.788Z,6.40
2023-03-08T13:03:42.973Z,6.00
2023-03-08T13:08:01.538Z,6.03
2023-03-08T13:12:21.770Z,6.00
2023-03-08T13:16:34.156Z,5.85
2023-03-08T13:21:15.884Z,5.70
2023-03-08T13:25:31.860Z,5.40
2023-03-08T13:29:35.984Z,5.88
2023-03-08T13:33:42.245Z,5.50
2023-03-08T13:37:53.351Z,6.13
2023-03-08T13:42:09.440Z,5.65
2023-03-08T13:46:17.198Z,5.85
2023-03-08T13:50:24.329Z,6.32
2023-03-08T13:54:32.016Z,5.43
2023-03-08T13:58:39.257Z,5.40
2023-03-08T14:02:47.684Z,5.60
2023-03-08T14:06:53.019Z,5.20
2023-03-08T14:11:00.977Z,5.50
2023-03-08T14:15:08.316Z,5.20
2023-03-08T14:19:20.616Z,5.35
2023-03-08T14:23:26.064Z,5.45
2023-03-08T14:27:37.393Z,4.78
2023-03-08T14:31:53.641Z,5.05
2023-03-08T14:36:00.163Z,6.32
2023-03-08T14:40:40.963Z,5.47
2023-03-08T14:44:44.245Z,5.18
2023-03-08T14:48:58.656Z,5.43
2023-03-08T14:53:04.291Z,5.45
2023-03-08T14:57:18.196Z,5.50
2023-03-08T15:01:26.427Z,5.43
2023-03-08T15:05:31.279Z,5.53
2023-03-08T15:09:35.856Z,5.90
2023-03-08T15:13:38.813Z,5.97
2023-03-08T15:17:41.974Z,5.22
2023-03-08T15:21:47.619Z,5.20
2023-03-08T15:25:51.204Z,5.45
2023-03-08T15:29:54.249Z,5.40
2023-03-08T15:33:57.787Z,5.80
2023-03-08T15:38:02.186Z,5.50
2023-03-08T15:42:05.647Z,5.55
2023-03-08T15:46:11.474Z,5.57
2023-03-08T15:50:16.861Z,5.65
2023-03-08T15:54:21.278Z,5.97
2023-03-08T15:58:25.602Z,5.10
2023-03-08T16:02:28.613Z,5.60
2023-03-08T16:06:31.782Z,6.10
2023-03-08T16:10:40.504Z,4.95
2023-03-08T16:14:48.465Z,5.38
2023-03-08T16:18:51.629Z,5.18
2023-03-08T16:22:55.647Z,5.78
2023-03-08T16:27:00.492Z,4.80
2023-03-08T16:31:03.959Z,5.05
2023-03-08T16:35:07.635Z,5.32
2023-03-08T16:39:10.870Z,5.00
2023-03-08T16:43:15.999Z,5.93
2023-03-08T16:47:19.877Z,6.10
2023-03-08T16:51:24.919Z,7.00
2023-03-08T16:55:28.020Z,5.95
2023-03-08T16:59:32.962Z,5.18
2023-03-08T17:03:38.370Z,5.28
2023-03-08T17:07:41.555Z,5.40
2023-03-08T17:11:45.705Z,6.35
2023-03-08T17:15:50.991Z,5.55
2023-03-08T17:19:54.804Z,5.35
2023-03-08T17:24:01.220Z,6.15
2023-03-08T17:28:05.401Z,5.82
2023-03-08T17:32:09.881Z,7.60
2023-03-08T17:36:14.384Z,6.95
2023-03-08T17:40:17.609Z,6.30
2023-03-08T17:44:20.666Z,5.90
2023-03-08T17:48:25.140Z,6.45
2023-03-08T17:52:28.200Z,6.97
2023-03-08T17:56:34.273Z,5.35
2023-03-08T18:00:37.825Z,7.15
2023-03-08T18:04:45.313Z,5.95
2023-03-08T18:08:48.492Z,7.45
2023-03-08T18:12:51.715Z,6.13
2023-03-08T18:16:54.846Z,5.47
2023-03-08T18:21:12.063Z,5.38
2023-03-08T18:25:16.104Z,4.95
2023-03-08T18:29:19.367Z,5.10
2023-03-08T18:33:23.168Z,5.55
2023-03-08T18:37:27.594Z,5.28
2023-03-08T18:41:30.677Z,4.78
2023-03-08T18:45:33.688Z,5.40
2023-03-08T18:49:37.295Z,5.25
2023-03-08T18:53:41.935Z,5.20
2023-03-08T18:57:45.004Z,5.13
2023-03-08T19:01:49.941Z,5.10
2023-03-08T19:05:53.168Z,4.88
2023-03-08T19:09:59.879Z,5.60
2023-03-08T19:14:03.508Z,5.30
2023-03-08T19:18:07.932Z,5.47
2023-03-08T19:22:11.946Z,5.20
2023-03-08T19:26:38.627Z,5.45
2023-03-08T19:30:41.997Z,5.18
2023-03-08T19:34:45.666Z,5.40
2023-03-08T19:38:48.768Z,5.53
2023-03-08T19:42:53.966Z,5.10
2023-03-08T19:46:57.368Z,4.78
2023-03-08T19:51:00.407Z,5.65
2023-03-08T19:55:05.140Z,4.90
2023-03-08T19:59:10.126Z,5.03
2023-03-08T20:03:14.479Z,4.97
2023-03-08T20:07:17.498Z,5.10
2023-03-08T20:11:20.905Z,4.75
2023-03-08T20:15:25.541Z,4.80
2023-03-08T20:19:31.830Z,4.60
2023-03-08T20:23:35.217Z,5.03
2023-03-08T20:27:38.476Z,4.28
2023-03-08T20:31:43.222Z,4.15
2023-03-08T20:35:47.889Z,4.45
2023-03-08T20:39:52.346Z,4.40
2023-03-08T20:43:56.249Z,4.30
2023-03-08T20:48:01.149Z,5.32
2023-03-08T20:52:04.548Z,4.95
2023-03-08T20:56:09.440Z,5.00
2023-03-08T21:00:14.194Z,4.57
2023-03-08T21:04:18.686Z,4.28
2023-03-08T21:08:24.371Z,5.20
2023-03-08T21:12:27.377Z,4.70
2023-03-08T21:16:31.451Z,4.85
2023-03-08T21:20:38.604Z,4.97
2023-03-08T21:24:41.674Z,4.32
2023-03-08T21:28:44.679Z,3.90
2023-03-08T21:32:47.787Z,4.15
2023-03-08T21:36:52.325Z,4.10
2023-03-08T21:40:55.519Z,3.65
2023-03-08T21:44:58.457Z,4.38
2023-03-08T21:49:01.553Z,3.80
2023-03-08T21:53:06.125Z,3.88
2023-03-08T21:57:09.207Z,3.63
2023-03-08T22:01:20.025Z,4.65
2023-03-08T22:05:23.545Z,4.07
2023-03-08T22:09:29.254Z,4.03
2023-03-08T22:13:32.947Z,4.57
2023-03-08T22:17:35.957Z,3.67
2023-03-08T22:21:39.097Z,3.38
2023-03-08T22:25:43.835Z,3.97
2023-03-08T22:29:47.364Z,3.30
2023-03-08T22:33:50.633Z,3.55
2023-03-08T22:37:53.719Z,3.58
2023-03-08T22:41:58.915Z,4.35
2023-03-08T22:46:07.969Z,4.13
2023-03-08T22:50:12.808Z,4.05
2023-03-08T22:54:17.894Z,3.92
2023-03-08T22:58:22.525Z,3.70
2023-03-08T23:02:26.565Z,3.22
2023-03-08T23:06:31.386Z,3.80
2023-03-08T23:10:34.509Z,3.05
2023-03-08T23:14:38.897Z,3.70
2023-03-08T23:18:42.245Z,3.70
2023-03-08T23:22:45.286Z,3.25
2023-03-08T23:26:48.458Z,3.08
2023-03-08T23:30:52.808Z,3.00
2023-03-08T23:34:55.953Z,3.45
2023-03-08T23:39:01.792Z,2.72
2023-03-08T23:43:05.170Z,2.67
2023-03-08T23:47:09.774Z,2.55
2023-03-08T23:51:17.100Z,2.50
2023-03-08T23:55:20.169Z,2.08
2023-03-08T23:59:24.500Z,2.85
